Denver, CO (80202)

5:15 AM MDT on September 05, 2015 (GMT -0600)
Geography and Env. Sciences, CU Denver | | Change Station
CLOSE
Current Station
Personal Weather Station
Location: Denver, CO
Elevation: 5225 ft
Nearby Weather Stations

Elev 5225 ft 39.75 °N, 105.00 °W | Updated 40 seconds ago

Partly Cloudy
Partly Cloudy
68.5 °F
Feels Like 68.5 °F
N
0.0
Wind Variable Wind from SSW
Gusts 2.0 mph

Today
High -- | Low -- °F
--% Chance of Precip.
Yesterday
High -- | Low -- °F
Precip. -- in
6:31 AM 7:25 PM
Waning Gibbous, 49% visible
Pressure 29.76 in
Visibility 10.0 miles
Clouds Mostly Cloudy 11000 ft
Dew Point 47 °F
Humidity 46%
Rainfall 0.00 in
Snow Depth Not available.
UV 0.0 out of 12
Pollen 10.10 out of 12
Air Quality Not available.
Flu Activity Not available.
METAR KAPA 051053Z 23009KT 10SM BKN110 20/09 A2999 RMK AO2 SLP077 T02000089
Pressure 29.76 in
Visibility 10.0 miles
Clouds Mostly Cloudy 11000 ft
Dew Point 47 °F
Humidity 46%
Rainfall 0.00 in
Snow Depth Not available.
UV 0.0 out of 12
Pollen 10.10 out of 12
Air Quality Not available.
Flu Activity Not available.
METAR KAPA 051053Z 23009KT 10SM BKN110 20/09 A2999 RMK AO2 SLP077 T02000089

10-Day Weather Forecast

×

Almanac

Astronomy

Sep. 05, 2015 Rise Set
Actual Time
Civil Twilight
Nautical Twilight
Astronomical Twilight
Moon
Length of Visible Light
Length of Day
Tomorrow will be .
, % of the Moon is Illuminated

Today's Extremes

State Highs State Lows

Community

WunderPhotos

Upload Photos

1,852,445 photos uploaded!

WunderBlogs® & News

Nearby

Air Quality

  Air Quality AQ Index Pollutant
Not available.

Snow Depth

Station Depth Elevation

Earthquake Activity

City Distance Mag. Time & Date
Minimum magnitude displayed is 2.5.

Coastal Water Temperatures

Place Temperature

Stations

Nearby Weather Stations

Station Location Temp. Windchill Dew Point Humidity Wind Precip. Elev Updated Type